createdAt,value
2023-05-19T00:01:39.551Z,7.2
2023-05-19T00:04:27.452Z,7
2023-05-19T00:07:15.260Z,7.1
2023-05-19T00:10:03.045Z,7.2
2023-05-19T00:12:52.452Z,7.2
2023-05-19T00:15:41.644Z,7.2
2023-05-19T00:18:29.626Z,7.2
2023-05-19T00:21:17.611Z,7.2
2023-05-19T00:24:05.337Z,7.2
2023-05-19T00:26:53.224Z,7.1
2023-05-19T00:29:41.006Z,7
2023-05-19T00:32:28.985Z,7
2023-05-19T00:35:16.795Z,6.9
2023-05-19T00:38:04.614Z,6.9
2023-05-19T00:40:52.452Z,6.8
2023-05-19T00:43:40.398Z,6.8
2023-05-19T00:46:28.262Z,6.8
2023-05-19T00:49:16.242Z,6.8
2023-05-19T00:52:03.939Z,6.7
2023-05-19T00:54:51.669Z,6.7
2023-05-19T00:57:39.404Z,6.8
2023-05-19T01:00:27.391Z,6.8
2023-05-19T01:03:15.360Z,6.8
2023-05-19T01:06:03.445Z,6.8
2023-05-19T01:08:51.254Z,6.8
2023-05-19T01:11:39.037Z,6.8
2023-05-19T01:14:26.819Z,6.8
2023-05-19T01:17:14.807Z,6.7
2023-05-19T01:20:02.607Z,6.7
2023-05-19T01:22:50.414Z,6.7
2023-05-19T01:25:38.079Z,6.7
2023-05-19T01:28:25.947Z,6.7
2023-05-19T01:31:13.682Z,6.7
2023-05-19T01:34:01.467Z,6.7
2023-05-19T01:36:49.185Z,6.7
2023-05-19T01:39:37.201Z,6.7
2023-05-19T01:42:24.958Z,6.7
2023-05-19T01:45:12.693Z,6.7
2023-05-19T01:48:00.513Z,6.7
2023-05-19T01:50:48.309Z,6.7
2023-05-19T01:53:36.149Z,6.7
2023-05-19T01:56:24.005Z,6.6
2023-05-19T01:59:11.711Z,6.6
2023-05-19T02:01:59.552Z,6.5
2023-05-19T02:04:47.460Z,6.5
2023-05-19T02:07:35.635Z,6.4
2023-05-19T02:10:23.305Z,6.4
2023-05-19T02:13:11.154Z,6.3
2023-05-19T02:15:58.940Z,6.3
2023-05-19T02:18:46.818Z,6.4
2023-05-19T02:21:34.601Z,6.4
2023-05-19T02:24:22.427Z,6.4
2023-05-19T02:27:10.253Z,6.4
2023-05-19T02:29:58.221Z,6.4
2023-05-19T02:32:46.024Z,6.3
2023-05-19T02:35:33.960Z,6.3
2023-05-19T02:38:21.778Z,6.3
2023-05-19T02:41:09.685Z,6.2
2023-05-19T02:43:57.361Z,6.2
2023-05-19T02:46:45.392Z,6.1
2023-05-19T02:49:33.646Z,6.1
2023-05-19T02:52:21.427Z,6
2023-05-19T02:55:09.265Z,6
2023-05-19T02:57:57.197Z,5.9
2023-05-19T03:00:44.942Z,5.9
2023-05-19T03:03:33.022Z,5.8
2023-05-19T03:06:20.958Z,5.7
2023-05-19T03:09:10.643Z,5.7
2023-05-19T03:11:58.439Z,5.6
2023-05-19T03:14:46.273Z,5.6
2023-05-19T03:17:34.075Z,5.6
2023-05-19T03:20:22.412Z,5.7
2023-05-19T03:23:10.525Z,5.7
2023-05-19T03:25:58.408Z,5.7
2023-05-19T03:28:46.145Z,5.7
2023-05-19T03:31:34.009Z,5.7
2023-05-19T03:34:21.766Z,5.7
2023-05-19T03:37:09.582Z,5.8
2023-05-19T03:39:57.432Z,5.8
2023-05-19T03:42:45.472Z,5.8
2023-05-19T03:45:33.342Z,5.8
2023-05-19T03:48:21.603Z,5.8
2023-05-19T03:51:09.235Z,5.8
2023-05-19T03:53:57.102Z,5.7
2023-05-19T03:56:44.899Z,5.7
2023-05-19T03:59:32.628Z,5.7
2023-05-19T04:02:20.488Z,5.7
2023-05-19T04:05:08.518Z,5.8
2023-05-19T04:07:56.343Z,5.9
2023-05-19T04:10:44.254Z,6
2023-05-19T04:13:32.117Z,6
2023-05-19T04:16:20.237Z,6.1
2023-05-19T04:19:08.349Z,6.2
2023-05-19T04:21:56.480Z,6.3
2023-05-19T04:24:44.224Z,6.3
2023-05-19T04:27:32.161Z,6.4
2023-05-19T04:30:19.944Z,6.5
2023-05-19T04:33:08.000Z,6.6
2023-05-19T04:35:55.909Z,6.7
2023-05-19T04:38:43.682Z,6.7
2023-05-19T04:41:31.497Z,6.9
2023-05-19T04:44:19.402Z,6.9
2023-05-19T04:47:07.342Z,7
2023-05-19T04:49:55.534Z,7.2
2023-05-19T04:52:43.510Z,7.4
2023-05-19T04:55:31.266Z,7.5
2023-05-19T04:58:18.996Z,7.6
2023-05-19T05:01:06.757Z,7.8
2023-05-19T05:03:54.935Z,7.8
2023-05-19T05:06:43.011Z,8
2023-05-19T05:09:30.809Z,8.1
2023-05-19T05:12:18.635Z,8.2
2023-05-19T05:15:06.618Z,8.3
2023-05-19T05:17:54.508Z,8.4
2023-05-19T05:20:42.588Z,8.5
2023-05-19T05:23:30.497Z,8.6
2023-05-19T05:26:18.386Z,8.7
2023-05-19T05:29:06.189Z,9
2023-05-19T05:31:53.970Z,10
2023-05-19T05:34:41.786Z,11.3
2023-05-19T05:37:29.599Z,12.5
2023-05-19T05:40:17.369Z,13.5
2023-05-19T05:43:05.099Z,14.4
2023-05-19T05:45:52.929Z,15
2023-05-19T05:48:40.978Z,15.2
2023-05-19T05:51:28.847Z,15.3
2023-05-19T05:54:16.605Z,15.8
2023-05-19T05:57:04.340Z,16.2
2023-05-19T05:59:52.317Z,16.4
2023-05-19T06:02:40.209Z,16.7
2023-05-19T06:05:28.169Z,16.6
2023-05-19T06:08:16.309Z,16.6
2023-05-19T06:11:04.639Z,16.6
2023-05-19T06:13:52.565Z,16.7
2023-05-19T06:16:40.518Z,16.6
2023-05-19T06:19:28.527Z,16.6
2023-05-19T06:22:16.530Z,16.7
2023-05-19T06:25:07.008Z,16.7
2023-05-19T06:27:54.864Z,17
2023-05-19T06:30:42.952Z,17.5
2023-05-19T06:33:30.946Z,17.8
2023-05-19T06:36:18.723Z,18.1
2023-05-19T06:39:06.458Z,18.4
2023-05-19T06:41:54.184Z,18.9
2023-05-19T06:44:42.122Z,19.2
2023-05-19T06:47:30.227Z,19.4
2023-05-19T06:50:18.252Z,19.4
2023-05-19T06:53:06.200Z,19.5
2023-05-19T06:55:58.510Z,19.8
2023-05-19T06:58:48.190Z,20
2023-05-19T07:01:36.119Z,20.3
2023-05-19T07:04:24.333Z,20.8
2023-05-19T07:07:12.234Z,21.1
2023-05-19T07:10:00.057Z,21.3
2023-05-19T07:12:47.838Z,21.4
2023-05-19T07:15:35.699Z,21.5
2023-05-19T07:18:23.607Z,21.5
2023-05-19T07:21:11.549Z,21.5
2023-05-19T07:23:59.582Z,21.4
2023-05-19T07:26:47.379Z,21.3
2023-05-19T07:29:35.104Z,21.1
2023-05-19T07:32:23.260Z,20.9
2023-05-19T07:35:11.456Z,21.1
2023-05-19T07:37:59.374Z,21
2023-05-19T07:40:47.048Z,21.4
2023-05-19T07:43:34.884Z,21.9
2023-05-19T07:46:22.579Z,22.3
2023-05-19T07:49:10.611Z,22.5
2023-05-19T07:51:58.504Z,22.4
2023-05-19T07:54:46.505Z,22.2
2023-05-19T07:57:34.325Z,22.2
2023-05-19T08:00:22.164Z,22.5
2023-05-19T08:03:10.084Z,22.8
2023-05-19T08:05:58.605Z,22.9
2023-05-19T08:08:46.419Z,22.9
2023-05-19T08:11:34.404Z,22.9
2023-05-19T08:14:22.135Z,22.8
2023-05-19T08:17:09.977Z,22.8
2023-05-19T08:19:57.805Z,23.2
2023-05-19T08:22:45.718Z,23.3
2023-05-19T08:25:33.592Z,23.3
2023-05-19T08:28:21.516Z,23.5
2023-05-19T08:31:09.192Z,23.7
2023-05-19T08:33:57.039Z,24
2023-05-19T08:36:44.663Z,24.3
2023-05-19T08:39:32.381Z,24.8
2023-05-19T08:42:20.158Z,24.8
2023-05-19T08:45:07.863Z,24.4
2023-05-19T08:47:55.652Z,24.2
2023-05-19T08:50:43.472Z,24.2
2023-05-19T08:53:34.186Z,24
2023-05-19T08:56:22.497Z,23.8
2023-05-19T08:59:10.194Z,23.5
2023-05-19T09:01:57.880Z,23.1
2023-05-19T09:04:46.149Z,23.2
2023-05-19T09:07:34.124Z,23.5
2023-05-19T09:10:21.795Z,23.8
2023-05-19T09:13:09.556Z,24
2023-05-19T09:15:57.216Z,24
2023-05-19T09:18:44.895Z,23.6
2023-05-19T09:21:32.860Z,23.6
2023-05-19T09:24:20.659Z,23.9
2023-05-19T09:27:08.397Z,24
2023-05-19T09:29:56.307Z,23.8
2023-05-19T09:32:44.077Z,23.6
2023-05-19T09:35:32.207Z,23.3
2023-05-19T09:38:20.560Z,23.3
2023-05-19T09:41:08.221Z,23
2023-05-19T09:43:55.865Z,23
2023-05-19T09:46:43.798Z,23.1
2023-05-19T09:49:31.676Z,23.5
2023-05-19T09:52:19.617Z,24.1
2023-05-19T09:55:07.345Z,24.4
2023-05-19T09:57:54.962Z,24.5
2023-05-19T10:00:42.638Z,24.5
2023-05-19T10:03:30.426Z,24.4
2023-05-19T10:06:18.173Z,24
2023-05-19T10:09:05.852Z,23.7
2023-05-19T10:11:53.579Z,23.9
2023-05-19T10:14:41.263Z,24
2023-05-19T10:17:29.122Z,24
2023-05-19T10:20:16.889Z,24
2023-05-19T10:23:05.019Z,24.4
2023-05-19T10:25:52.653Z,25
2023-05-19T10:28:40.591Z,25.1
2023-05-19T10:31:28.284Z,25.2
2023-05-19T10:34:15.993Z,25
2023-05-19T10:37:03.641Z,24.7
2023-05-19T10:39:51.414Z,24.7
2023-05-19T10:42:39.195Z,24.8
2023-05-19T10:45:26.931Z,25
2023-05-19T10:48:14.566Z,25
2023-05-19T10:51:02.290Z,25
2023-05-19T10:53:50.013Z,25
2023-05-19T10:56:37.707Z,25.2
2023-05-19T10:59:26.056Z,25.3
2023-05-19T11:02:17.350Z,25.2
2023-05-19T11:05:05.102Z,25.1
2023-05-19T11:07:52.842Z,25
2023-05-19T11:10:40.805Z,25.5
2023-05-19T11:13:28.607Z,25.6
2023-05-19T11:16:16.343Z,25.3
2023-05-19T11:19:04.162Z,25.2
2023-05-19T11:21:51.956Z,25.4
2023-05-19T11:24:39.586Z,25.8
2023-05-19T11:27:27.328Z,26.1
2023-05-19T11:30:15.142Z,26.4
2023-05-19T11:33:03.049Z,26.4
2023-05-19T11:35:50.921Z,26.1
2023-05-19T11:38:38.691Z,26
2023-05-19T11:41:26.349Z,26.1
2023-05-19T11:44:14.174Z,26.4
2023-05-19T11:47:02.133Z,26.7
2023-05-19T11:49:49.829Z,26.5
2023-05-19T11:52:37.468Z,26.2
2023-05-19T11:55:25.254Z,26
2023-05-19T11:58:24.245Z,25.8
2023-05-19T12:01:12.051Z,25.8
2023-05-19T12:03:59.853Z,25.6
2023-05-19T12:06:47.766Z,25.4
2023-05-19T12:09:35.512Z,25.5
2023-05-19T12:12:23.258Z,25.8
2023-05-19T12:15:10.807Z,26.1
2023-05-19T12:17:58.566Z,26.3
2023-05-19T12:20:46.506Z,26.4
2023-05-19T12:23:34.443Z,26.5
2023-05-19T12:26:22.050Z,26.6
2023-05-19T12:29:09.788Z,26.6
2023-05-19T12:31:57.693Z,26.5
2023-05-19T12:34:45.507Z,26.4
2023-05-19T12:37:33.166Z,26.4
2023-05-19T12:40:20.940Z,26.3
2023-05-19T12:43:08.630Z,26.2
2023-05-19T12:45:56.743Z,26.5
2023-05-19T12:48:44.701Z,26.5
2023-05-19T12:51:32.295Z,26.3
2023-05-19T12:54:20.055Z,26
2023-05-19T12:57:08.659Z,25.8
2023-05-19T13:00:07.136Z,25.5
2023-05-19T13:02:55.206Z,25.3
2023-05-19T13:05:43.137Z,25.5
2023-05-19T13:08:30.833Z,25.8
2023-05-19T13:11:18.382Z,25.8
2023-05-19T13:14:06.203Z,25.8
2023-05-19T13:16:54.071Z,25.5
2023-05-19T13:19:53.387Z,25.4
2023-05-19T13:22:41.351Z,25.5
2023-05-19T13:25:29.107Z,25.6
2023-05-19T13:28:16.973Z,25.7
2023-05-19T13:31:05.397Z,25.8
2023-05-19T13:33:53.090Z,25.8
2023-05-19T13:36:40.608Z,25.8
2023-05-19T13:39:28.460Z,25.8
2023-05-19T13:42:16.188Z,26.1
2023-05-19T13:45:03.916Z,26.4
2023-05-19T13:47:51.706Z,26.4
2023-05-19T13:50:39.635Z,26.5
2023-05-19T13:53:27.202Z,26.6
2023-05-19T13:56:14.895Z,26.4
2023-05-19T13:59:02.661Z,26.2
2023-05-19T14:01:50.521Z,26.2
2023-05-19T14:04:38.602Z,26.1
2023-05-19T14:07:26.240Z,26.2
2023-05-19T14:10:13.966Z,26.4
2023-05-19T14:16:22.249Z,27.2
2023-05-19T14:19:10.154Z,27.4
2023-05-19T14:21:58.126Z,27.3
2023-05-19T14:24:45.954Z,27.1
2023-05-19T14:27:33.658Z,27
2023-05-19T14:30:21.886Z,26.9
2023-05-19T14:33:09.991Z,26.7
2023-05-19T14:35:57.850Z,26.5
2023-05-19T14:38:45.687Z,26.5
2023-05-19T14:41:33.545Z,26.6
2023-05-19T14:44:21.248Z,26.9
2023-05-19T14:47:08.966Z,27.1
2023-05-19T14:49:57.052Z,27.1
2023-05-19T14:52:44.874Z,27.2
2023-05-19T14:55:32.595Z,27.3
2023-05-19T15:01:16.913Z,27.1
2023-05-19T15:04:04.935Z,26.9
2023-05-19T15:07:05.636Z,26.7
2023-05-19T15:09:58.695Z,26.6
2023-05-19T15:12:46.273Z,26.8
2023-05-19T15:15:34.008Z,27.4
2023-05-19T15:18:21.998Z,27.5
2023-05-19T15:21:09.733Z,27.2
2023-05-19T15:23:57.384Z,26.9
2023-05-19T15:26:45.191Z,26.6
2023-05-19T15:29:32.810Z,26.5
2023-05-19T15:32:20.501Z,26.6
2023-05-19T15:35:08.461Z,26.6
2023-05-19T15:37:56.178Z,26.5
2023-05-19T15:40:44.028Z,26.6
2023-05-19T15:43:31.785Z,26.2
2023-05-19T15:46:19.482Z,25.8
2023-05-19T15:49:07.459Z,25.6
2023-05-19T15:51:55.139Z,25.6
2023-05-19T15:54:42.821Z,25.5
2023-05-19T15:57:30.373Z,25.5
2023-05-19T16:00:18.079Z,25.5
2023-05-19T16:03:06.041Z,25.7
2023-05-19T16:05:54.008Z,25.8
2023-05-19T16:08:41.735Z,25.8
2023-05-19T16:11:29.381Z,25.6
2023-05-19T16:14:17.196Z,25.5
2023-05-19T16:17:05.088Z,25.5
2023-05-19T16:19:52.822Z,25.8
2023-05-19T16:22:40.551Z,25.6
2023-05-19T16:25:28.443Z,25.5
2023-05-19T16:28:16.067Z,25.3
2023-05-19T16:31:05.149Z,25.2
2023-05-19T16:33:52.860Z,25
2023-05-19T16:36:40.548Z,25
2023-05-19T16:39:28.331Z,24.8
2023-05-19T16:42:16.107Z,24.7
2023-05-19T16:45:03.842Z,24.7
2023-05-19T16:47:51.562Z,24.7
2023-05-19T16:50:39.365Z,24.6
2023-05-19T16:53:27.089Z,24.4
2023-05-19T16:56:14.715Z,24.2
2023-05-19T16:59:02.497Z,24
2023-05-19T17:01:50.190Z,23.9
2023-05-19T17:04:38.141Z,23.9
2023-05-19T17:07:25.798Z,23.9
2023-05-19T17:10:13.435Z,24
2023-05-19T17:13:01.214Z,24.1
2023-05-19T17:15:49.110Z,24.1
2023-05-19T17:18:36.833Z,23.9
2023-05-19T17:21:24.697Z,23.6
2023-05-19T17:24:12.492Z,23.6
2023-05-19T17:27:00.494Z,23.6
2023-05-19T17:29:48.182Z,23.4
2023-05-19T17:32:36.040Z,23.2
2023-05-19T17:35:24.695Z,23
2023-05-19T17:38:15.739Z,22.7
2023-05-19T17:41:03.863Z,22.6
2023-05-19T17:43:51.975Z,22.5
2023-05-19T17:46:39.589Z,22.2
2023-05-19T17:49:27.480Z,22.1
2023-05-19T17:52:15.169Z,22
2023-05-19T17:55:02.857Z,21.9
2023-05-19T17:57:50.551Z,21.7
2023-05-19T18:00:38.226Z,21.6
2023-05-19T18:03:26.230Z,21.5
2023-05-19T18:06:14.517Z,21.4
2023-05-19T18:09:02.173Z,21.1
2023-05-19T18:11:50.056Z,20.9
2023-05-19T18:14:37.743Z,20.8
2023-05-19T18:17:25.608Z,20.5
2023-05-19T18:20:13.367Z,20.4
2023-05-19T18:23:01.088Z,20.3
2023-05-19T18:25:48.740Z,20.1
2023-05-19T18:28:36.459Z,20
2023-05-19T18:31:24.110Z,19.7
2023-05-19T18:34:11.856Z,19.5
2023-05-19T18:36:59.717Z,19.3
2023-05-19T18:39:47.605Z,18.9
2023-05-19T18:42:35.388Z,18.5
2023-05-19T18:45:23.095Z,18.1
2023-05-19T18:48:11.151Z,17.8
2023-05-19T18:50:59.028Z,17.6
2023-05-19T18:53:46.716Z,17.4
2023-05-19T18:56:34.459Z,17.2
2023-05-19T18:59:22.132Z,17
2023-05-19T19:02:10.035Z,16.9
2023-05-19T19:04:57.886Z,16.7
2023-05-19T19:07:46.004Z,16.6
2023-05-19T19:10:33.812Z,16.5
2023-05-19T19:13:22.282Z,16.4
2023-05-19T19:16:09.994Z,16.3
2023-05-19T19:18:57.939Z,16.2
2023-05-19T19:21:45.791Z,16.1
2023-05-19T19:24:33.626Z,16
2023-05-19T19:27:21.332Z,15.8
2023-05-19T19:30:09.097Z,15.8
2023-05-19T19:32:56.905Z,15.6
2023-05-19T19:35:44.738Z,15.6
2023-05-19T19:38:32.638Z,15.5
2023-05-19T19:41:20.575Z,15.4
2023-05-19T19:44:08.360Z,15.3
2023-05-19T19:46:56.290Z,15.2
2023-05-19T19:49:44.335Z,15.1
2023-05-19T19:52:32.152Z,15
2023-05-19T19:55:19.855Z,15
2023-05-19T19:58:07.698Z,15
2023-05-19T20:00:55.520Z,14.9
2023-05-19T20:03:43.360Z,14.8
2023-05-19T20:06:31.189Z,14.7
2023-05-19T20:09:19.041Z,14.6
2023-05-19T20:12:06.752Z,14.6
2023-05-19T20:14:54.387Z,14.5
2023-05-19T20:17:42.134Z,14.5
2023-05-19T20:20:30.112Z,14.4
2023-05-19T20:23:17.718Z,14.3
2023-05-19T20:26:12.285Z,14.2
2023-05-19T20:29:01.370Z,14.1
2023-05-19T20:31:49.111Z,14.1
2023-05-19T20:34:36.976Z,14.1
2023-05-19T20:37:24.998Z,14.1
2023-05-19T20:40:12.690Z,14.1
2023-05-19T20:43:00.379Z,14.1
2023-05-19T20:45:48.086Z,14
2023-05-19T20:48:36.138Z,14
2023-05-19T20:51:23.920Z,14
2023-05-19T20:54:11.550Z,14
2023-05-19T20:56:59.305Z,13.9
2023-05-19T20:59:47.113Z,13.9
2023-05-19T21:02:35.122Z,13.8
2023-05-19T21:05:22.862Z,13.7
2023-05-19T21:08:10.522Z,13.7
2023-05-19T21:10:58.095Z,13.7
2023-05-19T21:13:45.876Z,13.6
2023-05-19T21:16:33.442Z,13.5
2023-05-19T21:19:21.630Z,13.5
2023-05-19T21:22:09.549Z,13.3
2023-05-19T21:24:57.340Z,13.3
2023-05-19T21:27:45.107Z,13.2
2023-05-19T21:30:32.976Z,13.1
2023-05-19T21:33:21.255Z,13.1
2023-05-19T21:36:08.965Z,13
2023-05-19T21:38:56.589Z,13
2023-05-19T21:41:44.328Z,12.9
2023-05-19T21:44:31.949Z,12.8
2023-05-19T21:47:19.784Z,12.7
2023-05-19T21:50:07.458Z,12.6
2023-05-19T21:52:55.353Z,12.5
2023-05-19T21:55:42.988Z,12.5
2023-05-19T21:58:31.234Z,12.5
2023-05-19T22:01:19.219Z,12.5
2023-05-19T22:04:07.287Z,12.4
2023-05-19T22:06:55.248Z,12.3
2023-05-19T22:09:43.076Z,12.3
2023-05-19T22:12:30.699Z,12.2
2023-05-19T22:15:18.394Z,12.2
2023-05-19T22:18:06.046Z,12.2
2023-05-19T22:20:53.901Z,12.1
2023-05-19T22:23:41.641Z,12.1
2023-05-19T22:26:29.421Z,12
2023-05-19T22:29:17.141Z,12
2023-05-19T22:32:04.779Z,11.9
2023-05-19T22:34:52.530Z,11.9
2023-05-19T22:37:40.546Z,11.8
2023-05-19T22:40:28.362Z,11.8
2023-05-19T22:43:16.241Z,11.7
2023-05-19T22:46:04.631Z,11.7
2023-05-19T22:48:52.497Z,11.7
2023-05-19T22:51:40.079Z,11.6
2023-05-19T22:54:27.868Z,11.5
2023-05-19T22:57:15.541Z,11.5
2023-05-19T23:00:03.389Z,11.5
2023-05-19T23:02:51.153Z,11.4
2023-05-19T23:05:39.196Z,11.3
2023-05-19T23:08:26.877Z,11.2
2023-05-19T23:11:14.512Z,11.1
2023-05-19T23:14:02.171Z,11.1
2023-05-19T23:16:49.989Z,11.1
2023-05-19T23:19:38.058Z,11.2
2023-05-19T23:22:25.858Z,11.2
2023-05-19T23:25:13.582Z,11.2
2023-05-19T23:28:01.414Z,11.3
2023-05-19T23:30:49.189Z,11.2
2023-05-19T23:33:37.354Z,11.1
2023-05-19T23:36:25.070Z,11.1
2023-05-19T23:39:12.902Z,11.1
2023-05-19T23:42:00.479Z,11.1
2023-05-19T23:44:48.214Z,11.1
2023-05-19T23:47:36.221Z,11.1
2023-05-19T23:50:24.295Z,11.1
2023-05-19T23:53:11.984Z,11.1
2023-05-19T23:56:00.229Z,11.1
2023-05-19T23:58:47.899Z,11.1
